Aérodrome :
LOGIN :

S'inscrire | Disclaimer

   EN    FR    IT 

 










Légende :    VFR   VFR Marginal   IFR   IFR Intensif   IFR Très Intensif
Visi : 
Plafond : 
>= 8 km
>= 3000ft
5 à 8 km
1000 à 3000 ft
1500m à 5 km
500 à 1000 ft
800 à 1500m
200 à 500 ft
< 800m
< 200 ft
Symboles :   Orages  Brouillard  Fortes neiges  Fortes précipitations  Vent > 20 kt
SIGMETs :   Divers  Orages  Givrage  Turbulence  Onde Orograph.  Cendres Volcan.







- Altitude de l'aérodrome : 74 ft
- Code IATA : MRS
- Voir les cartes d'approche


LFML - Marseille / Marignane

DERNIER METAR :
  • 221600Z AUTO 11009KT 9999 SCT032 BKN044 16/08 Q1017 NOSIG

METARs EXPIRÉS :
  • 221530Z AUTO 11008KT 9999 SCT032 BKN042 17/08 Q1017 NOSIG
  • 221500Z AUTO 12008KT 9999 BKN042 17/08 Q1017 NOSIG
  • 221430Z AUTO 11010KT 9999 FEW036 BKN044 18/08 Q1017 NOSIG
  • 221400Z AUTO 12010KT 9999 SCT037 OVC044 17/09 Q1017 NOSIG
  • 221330Z AUTO 13010KT 9999 FEW031 BKN043 18/09 Q1017 NOSIG

TAF TAF LFML
Valide du 22 à 15h jusqu'au 23 à 21h UTC


221400Z 2215/2321 14012KT 9999 SCT037 BKN044
BECMG 2217/2219 11010KT BKN021
PROB30
TEMPO 2222/2301 BKN009
BECMG 2302/2303 BKN038
BECMG 2311/2312 17010KT NSC
BECMG 2317/2320 07005KT TX18/2313Z TN12/2306Z
ATIS : +33 4 42 31 15 15
Pas de NOTAMs connus pour ce terrain.



MET'MAP, la Météo Aéronautique d'un coup d'oeil ! - Copyright ORBIFLY Décembre 2007 - Disclaimer

ORBIFLY MET'MAP TEAM :

Programmation & Développement : Alexandra Zaïnal
Conception & Développement : Baudouin d'Aumeries
Co-Programmation & Développement : Marc-Olivier Méhu
Soutien technique & logistique : Manuel Goepfert

Contact : metmap@orbifly.com




SOURCES & CREDITS :

   NOAA